sensor_id;sensor_type;location;lat;lon;timestamp;P1;durP1;ratioP1;P2;durP2;ratioP2
5871;SDS011;2962;51.312;7.378;2023-05-17T00:02:23;4.97;;;2.57;;
5871;SDS011;2962;51.312;7.378;2023-05-17T00:04:48;6.80;;;2.70;;
5871;SDS011;2962;51.312;7.378;2023-05-17T00:07:14;3.90;;;2.90;;
5871;SDS011;2962;51.312;7.378;2023-05-17T00:09:39;2.77;;;2.67;;
5871;SDS011;2962;51.312;7.378;2023-05-17T00:12:05;3.53;;;2.80;;
5871;SDS011;2962;51.312;7.378;2023-05-17T00:14:30;9.90;;;3.43;;
5871;SDS011;2962;51.312;7.378;2023-05-17T00:16:55;6.73;;;2.87;;
5871;SDS011;2962;51.312;7.378;2023-05-17T00:19:21;2.80;;;2.60;;
5871;SDS011;2962;51.312;7.378;2023-05-17T00:21:46;3.93;;;3.53;;
5871;SDS011;2962;51.312;7.378;2023-05-17T00:24:11;2.90;;;2.70;;
5871;SDS011;2962;51.312;7.378;2023-05-17T00:26:37;3.00;;;2.80;;
5871;SDS011;2962;51.312;7.378;2023-05-17T00:29:02;3.93;;;3.10;;
5871;SDS011;2962;51.312;7.378;2023-05-17T00:31:27;3.37;;;3.00;;
5871;SDS011;2962;51.312;7.378;2023-05-17T00:33:53;7.07;;;3.60;;
5871;SDS011;2962;51.312;7.378;2023-05-17T00:36:18;3.00;;;2.80;;
5871;SDS011;2962;51.312;7.378;2023-05-17T00:38:43;3.83;;;3.50;;
5871;SDS011;2962;51.312;7.378;2023-05-17T00:41:09;4.20;;;3.60;;
5871;SDS011;2962;51.312;7.378;2023-05-17T00:43:34;12.03;;;3.20;;
5871;SDS011;2962;51.312;7.378;2023-05-17T00:45:59;5.30;;;3.50;;
5871;SDS011;2962;51.312;7.378;2023-05-17T00:48:24;11.37;;;4.50;;
5871;SDS011;2962;51.312;7.378;2023-05-17T00:50:52;7.33;;;3.30;;
5871;SDS011;2962;51.312;7.378;2023-05-17T00:53:18;5.67;;;3.90;;
5871;SDS011;2962;51.312;7.378;2023-05-17T00:55:44;9.97;;;4.93;;
5871;SDS011;2962;51.312;7.378;2023-05-17T00:58:10;4.57;;;4.13;;
5871;SDS011;2962;51.312;7.378;2023-05-17T01:00:36;4.47;;;3.97;;
5871;SDS011;2962;51.312;7.378;2023-05-17T01:03:02;9.73;;;4.63;;
5871;SDS011;2962;51.312;7.378;2023-05-17T01:05:27;4.73;;;4.27;;
5871;SDS011;2962;51.312;7.378;2023-05-17T01:07:53;7.73;;;5.00;;
5871;SDS011;2962;51.312;7.378;2023-05-17T01:10:19;9.10;;;3.83;;
5871;SDS011;2962;51.312;7.378;2023-05-17T01:17:46;7.30;;;4.40;;
5871;SDS011;2962;51.312;7.378;2023-05-17T01:20:20;4.88;;;3.85;;
5871;SDS011;2962;51.312;7.378;2023-05-17T01:22:56;12.55;;;5.15;;
5871;SDS011;2962;51.312;7.378;2023-05-17T01:28:27;8.03;;;4.07;;
5871;SDS011;2962;51.312;7.378;2023-05-17T01:30:55;9.43;;;4.30;;
5871;SDS011;2962;51.312;7.378;2023-05-17T01:33:23;13.80;;;5.00;;
5871;SDS011;2962;51.312;7.378;2023-05-17T01:35:49;13.67;;;4.77;;
5871;SDS011;2962;51.312;7.378;2023-05-17T01:38:14;11.03;;;6.00;;
5871;SDS011;2962;51.312;7.378;2023-05-17T01:40:43;9.97;;;5.07;;
5871;SDS011;2962;51.312;7.378;2023-05-17T01:43:23;6.70;;;4.87;;
5871;SDS011;2962;51.312;7.378;2023-05-17T01:46:06;5.07;;;4.67;;
5871;SDS011;2962;51.312;7.378;2023-05-17T01:48:42;8.20;;;4.70;;
5871;SDS011;2962;51.312;7.378;2023-05-17T01:51:15;13.30;;;6.17;;
5871;SDS011;2962;51.312;7.378;2023-05-17T01:53:47;11.60;;;5.63;;
5871;SDS011;2962;51.312;7.378;2023-05-17T01:56:24;7.33;;;5.10;;
5871;SDS011;2962;51.312;7.378;2023-05-17T01:58:52;7.33;;;4.87;;
5871;SDS011;2962;51.312;7.378;2023-05-17T02:01:20;7.67;;;5.40;;
5871;SDS011;2962;51.312;7.378;2023-05-17T02:03:48;6.60;;;4.73;;
5871;SDS011;2962;51.312;7.378;2023-05-17T02:06:14;10.77;;;5.13;;
5871;SDS011;2962;51.312;7.378;2023-05-17T02:08:40;11.40;;;6.00;;
5871;SDS011;2962;51.312;7.378;2023-05-17T02:11:05;10.17;;;5.53;;
5871;SDS011;2962;51.312;7.378;2023-05-17T02:13:30;16.77;;;6.13;;
5871;SDS011;2962;51.312;7.378;2023-05-17T02:15:59;16.73;;;5.27;;
5871;SDS011;2962;51.312;7.378;2023-05-17T02:18:25;17.97;;;6.00;;
5871;SDS011;2962;51.312;7.378;2023-05-17T02:20:51;20.10;;;7.53;;
5871;SDS011;2962;51.312;7.378;2023-05-17T02:23:16;14.43;;;5.40;;
5871;SDS011;2962;51.312;7.378;2023-05-17T02:25:42;11.77;;;5.47;;
5871;SDS011;2962;51.312;7.378;2023-05-17T02:28:07;5.97;;;5.30;;
5871;SDS011;2962;51.312;7.378;2023-05-17T02:30:32;13.03;;;5.53;;
5871;SDS011;2962;51.312;7.378;2023-05-17T02:32:57;8.10;;;6.70;;
5871;SDS011;2962;51.312;7.378;2023-05-17T02:35:23;14.00;;;6.20;;
5871;SDS011;2962;51.312;7.378;2023-05-17T02:37:48;10.40;;;6.00;;
5871;SDS011;2962;51.312;7.378;2023-05-17T02:40:13;12.73;;;7.00;;
5871;SDS011;2962;51.312;7.378;2023-05-17T02:42:39;6.23;;;5.60;;
5871;SDS011;2962;51.312;7.378;2023-05-17T02:45:04;11.50;;;5.80;;
5871;SDS011;2962;51.312;7.378;2023-05-17T02:47:30;18.80;;;5.77;;
5871;SDS011;2962;51.312;7.378;2023-05-17T02:49:56;21.43;;;7.33;;
5871;SDS011;2962;51.312;7.378;2023-05-17T02:52:21;16.93;;;6.73;;
5871;SDS011;2962;51.312;7.378;2023-05-17T02:54:46;20.07;;;8.70;;
5871;SDS011;2962;51.312;7.378;2023-05-17T02:57:12;10.87;;;6.70;;
5871;SDS011;2962;51.312;7.378;2023-05-17T02:59:37;14.83;;;8.10;;
5871;SDS011;2962;51.312;7.378;2023-05-17T03:02:02;15.90;;;7.07;;
5871;SDS011;2962;51.312;7.378;2023-05-17T03:04:28;17.23;;;8.37;;
5871;SDS011;2962;51.312;7.378;2023-05-17T03:06:53;18.20;;;7.37;;
5871;SDS011;2962;51.312;7.378;2023-05-17T03:09:19;15.50;;;7.10;;
5871;SDS011;2962;51.312;7.378;2023-05-17T03:11:45;21.80;;;7.67;;
5871;SDS011;2962;51.312;7.378;2023-05-17T03:14:10;15.33;;;7.47;;
5871;SDS011;2962;51.312;7.378;2023-05-17T03:16:35;14.63;;;7.17;;
5871;SDS011;2962;51.312;7.378;2023-05-17T03:19:00;17.73;;;8.07;;
5871;SDS011;2962;51.312;7.378;2023-05-17T03:21:26;19.80;;;8.20;;
5871;SDS011;2962;51.312;7.378;2023-05-17T03:23:51;15.13;;;7.97;;
5871;SDS011;2962;51.312;7.378;2023-05-17T03:26:16;12.07;;;7.63;;
5871;SDS011;2962;51.312;7.378;2023-05-17T03:28:43;21.70;;;8.40;;
5871;SDS011;2962;51.312;7.378;2023-05-17T03:31:09;19.20;;;7.37;;
5871;SDS011;2962;51.312;7.378;2023-05-17T03:33:35;22.40;;;10.40;;
5871;SDS011;2962;51.312;7.378;2023-05-17T03:36:00;25.80;;;9.80;;
5871;SDS011;2962;51.312;7.378;2023-05-17T03:38:25;24.93;;;9.97;;
5871;SDS011;2962;51.312;7.378;2023-05-17T03:40:51;17.47;;;8.90;;
5871;SDS011;2962;51.312;7.378;2023-05-17T03:43:17;26.43;;;9.50;;
5871;SDS011;2962;51.312;7.378;2023-05-17T03:45:42;10.00;;;8.73;;
5871;SDS011;2962;51.312;7.378;2023-05-17T03:48:07;18.17;;;9.10;;
5871;SDS011;2962;51.312;7.378;2023-05-17T03:50:33;20.10;;;10.63;;
5871;SDS011;2962;51.312;7.378;2023-05-17T03:52:58;34.97;;;15.77;;
5871;SDS011;2962;51.312;7.378;2023-05-17T03:55:23;46.73;;;14.77;;
5871;SDS011;2962;51.312;7.378;2023-05-17T03:57:49;56.27;;;17.10;;
5871;SDS011;2962;51.312;7.378;2023-05-17T04:00:14;41.27;;;15.60;;
5871;SDS011;2962;51.312;7.378;2023-05-17T04:02:45;49.47;;;17.77;;
5871;SDS011;2962;51.312;7.378;2023-05-17T04:05:10;78.73;;;23.43;;
5871;SDS011;2962;51.312;7.378;2023-05-17T04:07:37;95.13;;;21.23;;
5871;SDS011;2962;51.312;7.378;2023-05-17T04:10:02;53.17;;;18.77;;
5871;SDS011;2962;51.312;7.378;2023-05-17T04:12:28;82.80;;;20.87;;
5871;SDS011;2962;51.312;7.378;2023-05-17T04:14:53;92.73;;;21.90;;
5871;SDS011;2962;51.312;7.378;2023-05-17T04:17:19;109.03;;;21.47;;
5871;SDS011;2962;51.312;7.378;2023-05-17T04:19:44;306.73;;;30.60;;
5871;SDS011;2962;51.312;7.378;2023-05-17T04:22:10;220.00;;;25.50;;
5871;SDS011;2962;51.312;7.378;2023-05-17T04:24:35;104.83;;;22.67;;
5871;SDS011;2962;51.312;7.378;2023-05-17T04:27:00;125.97;;;23.90;;
5871;SDS011;2962;51.312;7.378;2023-05-17T04:29:28;118.43;;;21.20;;
5871;SDS011;2962;51.312;7.378;2023-05-17T04:31:55;79.27;;;20.80;;
5871;SDS011;2962;51.312;7.378;2023-05-17T04:34:20;70.33;;;21.23;;
5871;SDS011;2962;51.312;7.378;2023-05-17T04:36:49;84.80;;;24.30;;
5871;SDS011;2962;51.312;7.378;2023-05-17T04:39:14;60.13;;;22.70;;
5871;SDS011;2962;51.312;7.378;2023-05-17T04:41:40;83.30;;;21.47;;
5871;SDS011;2962;51.312;7.378;2023-05-17T04:44:05;122.63;;;22.57;;
5871;SDS011;2962;51.312;7.378;2023-05-17T04:46:31;273.30;;;26.93;;
5871;SDS011;2962;51.312;7.378;2023-05-17T04:48:57;558.07;;;36.77;;
5871;SDS011;2962;51.312;7.378;2023-05-17T04:51:22;418.83;;;35.43;;
5871;SDS011;2962;51.312;7.378;2023-05-17T04:53:48;680.63;;;45.60;;
5871;SDS011;2962;51.312;7.378;2023-05-17T04:56:13;633.27;;;45.50;;
5871;SDS011;2962;51.312;7.378;2023-05-17T04:58:38;601.77;;;45.27;;
5871;SDS011;2962;51.312;7.378;2023-05-17T05:01:04;317.30;;;33.33;;
5871;SDS011;2962;51.312;7.378;2023-05-17T05:03:29;219.20;;;27.00;;
5871;SDS011;2962;51.312;7.378;2023-05-17T05:05:55;545.87;;;43.40;;
5871;SDS011;2962;51.312;7.378;2023-05-17T05:08:22;370.33;;;33.93;;
5871;SDS011;2962;51.312;7.378;2023-05-17T05:10:47;201.73;;;27.17;;
5871;SDS011;2962;51.312;7.378;2023-05-17T05:13:12;41.47;;;18.63;;
5871;SDS011;2962;51.312;7.378;2023-05-17T05:15:37;36.07;;;21.73;;
5871;SDS011;2962;51.312;7.378;2023-05-17T05:18:03;33.40;;;17.23;;
5871;SDS011;2962;51.312;7.378;2023-05-17T05:20:28;32.00;;;17.20;;
5871;SDS011;2962;51.312;7.378;2023-05-17T05:22:53;35.73;;;18.20;;
5871;SDS011;2962;51.312;7.378;2023-05-17T05:25:19;47.03;;;19.00;;
5871;SDS011;2962;51.312;7.378;2023-05-17T05:27:44;28.67;;;17.03;;
5871;SDS011;2962;51.312;7.378;2023-05-17T05:30:10;41.00;;;17.67;;
5871;SDS011;2962;51.312;7.378;2023-05-17T05:32:35;39.30;;;16.63;;
5871;SDS011;2962;51.312;7.378;2023-05-17T05:35:04;36.87;;;15.70;;
5871;SDS011;2962;51.312;7.378;2023-05-17T05:37:29;33.47;;;15.23;;
5871;SDS011;2962;51.312;7.378;2023-05-17T05:39:55;27.43;;;13.83;;
5871;SDS011;2962;51.312;7.378;2023-05-17T05:42:20;25.40;;;14.10;;
5871;SDS011;2962;51.312;7.378;2023-05-17T05:44:45;23.63;;;11.93;;
5871;SDS011;2962;51.312;7.378;2023-05-17T05:47:11;38.93;;;13.50;;
5871;SDS011;2962;51.312;7.378;2023-05-17T05:49:36;24.37;;;12.07;;
5871;SDS011;2962;51.312;7.378;2023-05-17T05:52:01;26.80;;;12.40;;
5871;SDS011;2962;51.312;7.378;2023-05-17T05:54:27;31.83;;;14.90;;
5871;SDS011;2962;51.312;7.378;2023-05-17T05:56:52;27.17;;;12.90;;
5871;SDS011;2962;51.312;7.378;2023-05-17T05:59:18;19.70;;;11.27;;
5871;SDS011;2962;51.312;7.378;2023-05-17T06:01:43;15.27;;;8.47;;
5871;SDS011;2962;51.312;7.378;2023-05-17T06:04:09;15.43;;;9.30;;
5871;SDS011;2962;51.312;7.378;2023-05-17T06:06:34;17.00;;;8.80;;
5871;SDS011;2962;51.312;7.378;2023-05-17T06:08:59;21.60;;;9.03;;
5871;SDS011;2962;51.312;7.378;2023-05-17T06:11:25;14.77;;;7.03;;
5871;SDS011;2962;51.312;7.378;2023-05-17T06:13:50;18.33;;;7.00;;
5871;SDS011;2962;51.312;7.378;2023-05-17T06:16:15;13.40;;;6.27;;
5871;SDS011;2962;51.312;7.378;2023-05-17T06:18:40;14.40;;;5.80;;
5871;SDS011;2962;51.312;7.378;2023-05-17T06:21:06;23.67;;;6.13;;
5871;SDS011;2962;51.312;7.378;2023-05-17T06:23:31;15.13;;;5.33;;
5871;SDS011;2962;51.312;7.378;2023-05-17T06:25:56;16.00;;;4.40;;
5871;SDS011;2962;51.312;7.378;2023-05-17T06:28:22;10.53;;;4.73;;
5871;SDS011;2962;51.312;7.378;2023-05-17T06:30:47;15.20;;;3.53;;
5871;SDS011;2962;51.312;7.378;2023-05-17T06:33:12;13.70;;;3.90;;
5871;SDS011;2962;51.312;7.378;2023-05-17T06:35:37;13.73;;;4.10;;
5871;SDS011;2962;51.312;7.378;2023-05-17T06:38:03;15.87;;;4.60;;
5871;SDS011;2962;51.312;7.378;2023-05-17T06:40:28;21.00;;;5.63;;
5871;SDS011;2962;51.312;7.378;2023-05-17T06:42:54;20.03;;;4.33;;
5871;SDS011;2962;51.312;7.378;2023-05-17T06:45:19;7.63;;;3.57;;
5871;SDS011;2962;51.312;7.378;2023-05-17T06:47:45;12.57;;;4.37;;
5871;SDS011;2962;51.312;7.378;2023-05-17T06:50:10;8.77;;;3.67;;
5871;SDS011;2962;51.312;7.378;2023-05-17T06:52:36;11.63;;;4.87;;
5871;SDS011;2962;51.312;7.378;2023-05-17T06:55:01;13.93;;;3.80;;
5871;SDS011;2962;51.312;7.378;2023-05-17T06:57:26;17.13;;;5.47;;
5871;SDS011;2962;51.312;7.378;2023-05-17T06:59:52;24.63;;;4.70;;
5871;SDS011;2962;51.312;7.378;2023-05-17T07:02:17;8.83;;;3.50;;
5871;SDS011;2962;51.312;7.378;2023-05-17T07:04:43;13.63;;;3.30;;
5871;SDS011;2962;51.312;7.378;2023-05-17T07:07:08;14.93;;;3.70;;
5871;SDS011;2962;51.312;7.378;2023-05-17T07:09:33;13.50;;;4.00;;
5871;SDS011;2962;51.312;7.378;2023-05-17T07:11:59;20.93;;;3.63;;
5871;SDS011;2962;51.312;7.378;2023-05-17T07:14:24;8.63;;;2.67;;
5871;SDS011;2962;51.312;7.378;2023-05-17T07:16:49;9.33;;;2.30;;
5871;SDS011;2962;51.312;7.378;2023-05-17T07:19:14;12.97;;;3.20;;
5871;SDS011;2962;51.312;7.378;2023-05-17T07:21:40;7.20;;;3.10;;
5871;SDS011;2962;51.312;7.378;2023-05-17T07:24:05;9.40;;;2.80;;
5871;SDS011;2962;51.312;7.378;2023-05-17T07:26:31;14.13;;;2.77;;
5871;SDS011;2962;51.312;7.378;2023-05-17T07:28:56;14.77;;;3.27;;
5871;SDS011;2962;51.312;7.378;2023-05-17T07:31:21;6.87;;;2.20;;
5871;SDS011;2962;51.312;7.378;2023-05-17T07:33:47;14.23;;;2.43;;
5871;SDS011;2962;51.312;7.378;2023-05-17T07:36:12;10.70;;;2.50;;
5871;SDS011;2962;51.312;7.378;2023-05-17T07:38:37;8.93;;;2.23;;
5871;SDS011;2962;51.312;7.378;2023-05-17T07:41:03;6.73;;;2.67;;
5871;SDS011;2962;51.312;7.378;2023-05-17T07:43:28;12.43;;;2.60;;
5871;SDS011;2962;51.312;7.378;2023-05-17T07:45:54;6.77;;;2.33;;
5871;SDS011;2962;51.312;7.378;2023-05-17T07:48:19;4.50;;;2.37;;
5871;SDS011;2962;51.312;7.378;2023-05-17T07:50:44;4.60;;;1.67;;
5871;SDS011;2962;51.312;7.378;2023-05-17T07:53:10;5.97;;;1.83;;
5871;SDS011;2962;51.312;7.378;2023-05-17T07:55:36;8.47;;;2.20;;
5871;SDS011;2962;51.312;7.378;2023-05-17T07:58:01;11.67;;;1.90;;
5871;SDS011;2962;51.312;7.378;2023-05-17T08:00:27;3.43;;;3.00;;
5871;SDS011;2962;51.312;7.378;2023-05-17T08:02:52;6.33;;;1.40;;
5871;SDS011;2962;51.312;7.378;2023-05-17T08:05:17;12.17;;;2.40;;
5871;SDS011;2962;51.312;7.378;2023-05-17T08:07:43;7.10;;;1.73;;
5871;SDS011;2962;51.312;7.378;2023-05-17T08:10:08;5.60;;;2.90;;
5871;SDS011;2962;51.312;7.378;2023-05-17T08:12:34;6.17;;;1.53;;
5871;SDS011;2962;51.312;7.378;2023-05-17T08:14:59;8.17;;;1.37;;
5871;SDS011;2962;51.312;7.378;2023-05-17T08:17:24;7.33;;;1.50;;
5871;SDS011;2962;51.312;7.378;2023-05-17T08:19:50;6.07;;;2.90;;
5871;SDS011;2962;51.312;7.378;2023-05-17T08:22:15;5.50;;;2.53;;
5871;SDS011;2962;51.312;7.378;2023-05-17T08:24:41;9.67;;;3.40;;
5871;SDS011;2962;51.312;7.378;2023-05-17T08:27:08;11.83;;;1.77;;
5871;SDS011;2962;51.312;7.378;2023-05-17T08:29:34;8.03;;;2.37;;
5871;SDS011;2962;51.312;7.378;2023-05-17T08:32:00;12.07;;;2.20;;
5871;SDS011;2962;51.312;7.378;2023-05-17T08:34:25;8.97;;;2.17;;
5871;SDS011;2962;51.312;7.378;2023-05-17T08:36:50;8.90;;;2.23;;
5871;SDS011;2962;51.312;7.378;2023-05-17T08:39:17;9.30;;;2.10;;
5871;SDS011;2962;51.312;7.378;2023-05-17T08:41:45;4.17;;;1.60;;
5871;SDS011;2962;51.312;7.378;2023-05-17T08:44:11;12.10;;;1.97;;
5871;SDS011;2962;51.312;7.378;2023-05-17T08:46:38;10.70;;;2.30;;
5871;SDS011;2962;51.312;7.378;2023-05-17T08:49:05;10.70;;;3.30;;
5871;SDS011;2962;51.312;7.378;2023-05-17T08:51:31;5.10;;;2.07;;
5871;SDS011;2962;51.312;7.378;2023-05-17T08:53:57;7.33;;;1.80;;
5871;SDS011;2962;51.312;7.378;2023-05-17T08:56:23;6.83;;;1.50;;
5871;SDS011;2962;51.312;7.378;2023-05-17T08:58:53;2.93;;;1.30;;
5871;SDS011;2962;51.312;7.378;2023-05-17T09:01:20;7.93;;;1.67;;
5871;SDS011;2962;51.312;7.378;2023-05-17T09:03:46;2.40;;;1.50;;
5871;SDS011;2962;51.312;7.378;2023-05-17T09:06:15;9.40;;;1.60;;
5871;SDS011;2962;51.312;7.378;2023-05-17T09:08:43;8.63;;;1.70;;
5871;SDS011;2962;51.312;7.378;2023-05-17T09:11:09;5.20;;;1.33;;
5871;SDS011;2962;51.312;7.378;2023-05-17T09:13:34;8.30;;;2.13;;
5871;SDS011;2962;51.312;7.378;2023-05-17T09:15:59;7.17;;;1.53;;
5871;SDS011;2962;51.312;7.378;2023-05-17T09:18:28;8.63;;;1.47;;
5871;SDS011;2962;51.312;7.378;2023-05-17T09:20:56;5.07;;;1.30;;
5871;SDS011;2962;51.312;7.378;2023-05-17T09:23:27;6.87;;;1.17;;
5871;SDS011;2962;51.312;7.378;2023-05-17T09:26:02;6.90;;;1.47;;
5871;SDS011;2962;51.312;7.378;2023-05-17T09:28:35;4.13;;;1.40;;
5871;SDS011;2962;51.312;7.378;2023-05-17T09:31:04;6.77;;;1.30;;
5871;SDS011;2962;51.312;7.378;2023-05-17T09:33:33;6.40;;;1.27;;
5871;SDS011;2962;51.312;7.378;2023-05-17T09:36:00;3.90;;;2.03;;
5871;SDS011;2962;51.312;7.378;2023-05-17T09:38:26;9.57;;;1.67;;
5871;SDS011;2962;51.312;7.378;2023-05-17T09:40:51;6.40;;;1.73;;
5871;SDS011;2962;51.312;7.378;2023-05-17T09:43:21;6.70;;;1.93;;
5871;SDS011;2962;51.312;7.378;2023-05-17T09:45:55;4.47;;;1.60;;
5871;SDS011;2962;51.312;7.378;2023-05-17T09:48:21;5.63;;;1.87;;
5871;SDS011;2962;51.312;7.378;2023-05-17T09:50:50;6.90;;;2.00;;
5871;SDS011;2962;51.312;7.378;2023-05-17T09:53:23;3.57;;;1.60;;
5871;SDS011;2962;51.312;7.378;2023-05-17T09:55:54;7.30;;;2.27;;
5871;SDS011;2962;51.312;7.378;2023-05-17T09:58:24;12.17;;;2.40;;
5871;SDS011;2962;51.312;7.378;2023-05-17T10:00:52;10.70;;;1.80;;
5871;SDS011;2962;51.312;7.378;2023-05-17T10:03:20;6.80;;;1.60;;
5871;SDS011;2962;51.312;7.378;2023-05-17T10:05:47;6.27;;;1.67;;
5871;SDS011;2962;51.312;7.378;2023-05-17T10:08:17;7.23;;;1.60;;
5871;SDS011;2962;51.312;7.378;2023-05-17T10:10:47;8.67;;;1.30;;
5871;SDS011;2962;51.312;7.378;2023-05-17T10:13:14;4.83;;;1.63;;
5871;SDS011;2962;51.312;7.378;2023-05-17T10:15:41;5.83;;;2.00;;
5871;SDS011;2962;51.312;7.378;2023-05-17T10:18:07;14.73;;;1.77;;
5871;SDS011;2962;51.312;7.378;2023-05-17T10:20:33;5.97;;;1.73;;
5871;SDS011;2962;51.312;7.378;2023-05-17T10:22:59;5.47;;;2.63;;
5871;SDS011;2962;51.312;7.378;2023-05-17T10:25:27;8.17;;;1.80;;
5871;SDS011;2962;51.312;7.378;2023-05-17T10:27:53;8.53;;;1.70;;
5871;SDS011;2962;51.312;7.378;2023-05-17T10:30:19;8.03;;;2.10;;
5871;SDS011;2962;51.312;7.378;2023-05-17T10:32:45;3.27;;;1.93;;
5871;SDS011;2962;51.312;7.378;2023-05-17T10:35:11;4.63;;;2.07;;
5871;SDS011;2962;51.312;7.378;2023-05-17T10:37:39;6.93;;;2.07;;
5871;SDS011;2962;51.312;7.378;2023-05-17T10:40:05;4.30;;;1.50;;
5871;SDS011;2962;51.312;7.378;2023-05-17T10:42:38;4.33;;;1.70;;
5871;SDS011;2962;51.312;7.378;2023-05-17T10:45:06;10.23;;;1.63;;
5871;SDS011;2962;51.312;7.378;2023-05-17T10:47:33;11.83;;;2.10;;
5871;SDS011;2962;51.312;7.378;2023-05-17T10:49:59;6.23;;;1.70;;
5871;SDS011;2962;51.312;7.378;2023-05-17T10:52:24;7.70;;;1.73;;
5871;SDS011;2962;51.312;7.378;2023-05-17T10:54:50;3.90;;;1.70;;
5871;SDS011;2962;51.312;7.378;2023-05-17T10:57:19;9.83;;;1.57;;
5871;SDS011;2962;51.312;7.378;2023-05-17T10:59:59;5.20;;;1.73;;
5871;SDS011;2962;51.312;7.378;2023-05-17T11:02:30;13.67;;;1.60;;
5871;SDS011;2962;51.312;7.378;2023-05-17T11:04:56;10.90;;;2.00;;
5871;SDS011;2962;51.312;7.378;2023-05-17T11:07:24;6.53;;;1.97;;
5871;SDS011;2962;51.312;7.378;2023-05-17T11:12:28;10.83;;;1.70;;
5871;SDS011;2962;51.312;7.378;2023-05-17T11:14:56;6.33;;;1.57;;
5871;SDS011;2962;51.312;7.378;2023-05-17T11:17:32;6.10;;;1.90;;
5871;SDS011;2962;51.312;7.378;2023-05-17T11:20:00;4.17;;;1.93;;
5871;SDS011;2962;51.312;7.378;2023-05-17T11:22:26;5.40;;;1.70;;
5871;SDS011;2962;51.312;7.378;2023-05-17T11:24:53;9.53;;;1.97;;
5871;SDS011;2962;51.312;7.378;2023-05-17T11:27:21;4.90;;;1.97;;
5871;SDS011;2962;51.312;7.378;2023-05-17T11:29:51;8.20;;;2.13;;
5871;SDS011;2962;51.312;7.378;2023-05-17T11:32:30;7.57;;;1.73;;
5871;SDS011;2962;51.312;7.378;2023-05-17T11:34:58;4.73;;;2.20;;
5871;SDS011;2962;51.312;7.378;2023-05-17T11:37:25;9.13;;;1.90;;
5871;SDS011;2962;51.312;7.378;2023-05-17T11:42:31;5.83;;;2.80;;
5871;SDS011;2962;51.312;7.378;2023-05-17T11:44:57;4.37;;;1.80;;
5871;SDS011;2962;51.312;7.378;2023-05-17T11:47:25;5.40;;;2.30;;
5871;SDS011;2962;51.312;7.378;2023-05-17T11:49:51;3.90;;;2.40;;
5871;SDS011;2962;51.312;7.378;2023-05-17T11:52:18;3.30;;;1.97;;
5871;SDS011;2962;51.312;7.378;2023-05-17T11:54:43;4.40;;;2.30;;
5871;SDS011;2962;51.312;7.378;2023-05-17T11:57:10;3.03;;;1.80;;
5871;SDS011;2962;51.312;7.378;2023-05-17T11:59:37;6.23;;;2.00;;
5871;SDS011;2962;51.312;7.378;2023-05-17T12:02:06;4.10;;;1.57;;
5871;SDS011;2962;51.312;7.378;2023-05-17T12:04:34;7.80;;;1.77;;
5871;SDS011;2962;51.312;7.378;2023-05-17T12:07:02;5.50;;;2.13;;
5871;SDS011;2962;51.312;7.378;2023-05-17T12:09:28;6.00;;;1.63;;
5871;SDS011;2962;51.312;7.378;2023-05-17T12:11:53;4.57;;;2.00;;
5871;SDS011;2962;51.312;7.378;2023-05-17T12:14:20;9.57;;;2.13;;
5871;SDS011;2962;51.312;7.378;2023-05-17T12:16:47;6.63;;;2.13;;
5871;SDS011;2962;51.312;7.378;2023-05-17T12:19:16;7.50;;;1.93;;
5871;SDS011;2962;51.312;7.378;2023-05-17T12:21:46;4.53;;;1.63;;
5871;SDS011;2962;51.312;7.378;2023-05-17T12:24:11;4.53;;;1.70;;
5871;SDS011;2962;51.312;7.378;2023-05-17T12:26:46;3.27;;;2.23;;
5871;SDS011;2962;51.312;7.378;2023-05-17T12:29:12;10.33;;;3.43;;
5871;SDS011;2962;51.312;7.378;2023-05-17T12:31:41;4.30;;;1.67;;
5871;SDS011;2962;51.312;7.378;2023-05-17T12:34:09;2.70;;;1.60;;
5871;SDS011;2962;51.312;7.378;2023-05-17T12:36:39;8.57;;;2.20;;
5871;SDS011;2962;51.312;7.378;2023-05-17T12:39:05;3.63;;;1.70;;
5871;SDS011;2962;51.312;7.378;2023-05-17T12:41:33;4.13;;;2.17;;
5871;SDS011;2962;51.312;7.378;2023-05-17T12:44:00;4.77;;;2.00;;
5871;SDS011;2962;51.312;7.378;2023-05-17T12:46:25;5.50;;;1.90;;
5871;SDS011;2962;51.312;7.378;2023-05-17T12:48:52;2.17;;;2.00;;
5871;SDS011;2962;51.312;7.378;2023-05-17T12:51:18;5.10;;;2.53;;
5871;SDS011;2962;51.312;7.378;2023-05-17T12:53:52;6.90;;;2.10;;
5871;SDS011;2962;51.312;7.378;2023-05-17T12:56:28;5.33;;;2.00;;
5871;SDS011;2962;51.312;7.378;2023-05-17T12:59:04;6.73;;;2.40;;
5871;SDS011;2962;51.312;7.378;2023-05-17T13:01:44;5.17;;;2.70;;
5871;SDS011;2962;51.312;7.378;2023-05-17T13:04:10;5.93;;;1.73;;
5871;SDS011;2962;51.312;7.378;2023-05-17T13:06:47;10.87;;;2.20;;
5871;SDS011;2962;51.312;7.378;2023-05-17T13:09:19;4.97;;;1.87;;
5871;SDS011;2962;51.312;7.378;2023-05-17T13:14:39;5.33;;;1.60;;
5871;SDS011;2962;51.312;7.378;2023-05-17T13:17:16;5.03;;;2.13;;
5871;SDS011;2962;51.312;7.378;2023-05-17T13:19:44;3.70;;;2.20;;
5871;SDS011;2962;51.312;7.378;2023-05-17T13:22:10;5.43;;;2.00;;
5871;SDS011;2962;51.312;7.378;2023-05-17T13:24:36;3.70;;;1.33;;
5871;SDS011;2962;51.312;7.378;2023-05-17T13:27:03;4.80;;;1.57;;
5871;SDS011;2962;51.312;7.378;2023-05-17T13:29:30;4.73;;;2.10;;
5871;SDS011;2962;51.312;7.378;2023-05-17T13:31:57;4.53;;;1.57;;
5871;SDS011;2962;51.312;7.378;2023-05-17T13:34:22;5.43;;;2.53;;
5871;SDS011;2962;51.312;7.378;2023-05-17T13:36:48;4.53;;;2.20;;
5871;SDS011;2962;51.312;7.378;2023-05-17T13:39:14;4.73;;;2.13;;
5871;SDS011;2962;51.312;7.378;2023-05-17T13:45:01;1.57;;;1.47;;
5871;SDS011;2962;51.312;7.378;2023-05-17T13:47:27;4.17;;;2.10;;
5871;SDS011;2962;51.312;7.378;2023-05-17T13:49:56;5.10;;;2.07;;
5871;SDS011;2962;51.312;7.378;2023-05-17T13:52:23;2.87;;;1.87;;
5871;SDS011;2962;51.312;7.378;2023-05-17T13:54:49;1.77;;;1.60;;
5871;SDS011;2962;51.312;7.378;2023-05-17T13:57:14;8.50;;;1.93;;
5871;SDS011;2962;51.312;7.378;2023-05-17T13:59:40;5.97;;;1.83;;
5871;SDS011;2962;51.312;7.378;2023-05-17T14:02:05;6.00;;;1.80;;
5871;SDS011;2962;51.312;7.378;2023-05-17T14:04:31;3.47;;;1.80;;
5871;SDS011;2962;51.312;7.378;2023-05-17T14:06:57;3.80;;;2.00;;
5871;SDS011;2962;51.312;7.378;2023-05-17T14:09:22;14.00;;;2.90;;
5871;SDS011;2962;51.312;7.378;2023-05-17T14:11:47;3.03;;;1.97;;
5871;SDS011;2962;51.312;7.378;2023-05-17T14:14:12;4.13;;;2.30;;
5871;SDS011;2962;51.312;7.378;2023-05-17T14:16:38;10.30;;;2.47;;
5871;SDS011;2962;51.312;7.378;2023-05-17T14:19:03;7.70;;;2.30;;
5871;SDS011;2962;51.312;7.378;2023-05-17T14:21:28;5.83;;;2.20;;
5871;SDS011;2962;51.312;7.378;2023-05-17T14:23:53;5.60;;;2.20;;
5871;SDS011;2962;51.312;7.378;2023-05-17T14:26:19;4.10;;;2.30;;
5871;SDS011;2962;51.312;7.378;2023-05-17T14:28:46;2.83;;;2.30;;
5871;SDS011;2962;51.312;7.378;2023-05-17T14:31:11;5.77;;;2.17;;
5871;SDS011;2962;51.312;7.378;2023-05-17T14:33:36;6.90;;;2.17;;
5871;SDS011;2962;51.312;7.378;2023-05-17T14:36:02;5.20;;;2.30;;
5871;SDS011;2962;51.312;7.378;2023-05-17T14:38:30;11.70;;;2.80;;
5871;SDS011;2962;51.312;7.378;2023-05-17T14:40:56;2.83;;;1.90;;
5871;SDS011;2962;51.312;7.378;2023-05-17T14:43:22;9.70;;;2.70;;
5871;SDS011;2962;51.312;7.378;2023-05-17T14:45:47;3.20;;;2.00;;
5871;SDS011;2962;51.312;7.378;2023-05-17T14:48:12;2.70;;;1.90;;
5871;SDS011;2962;51.312;7.378;2023-05-17T14:50:38;4.53;;;2.40;;
5871;SDS011;2962;51.312;7.378;2023-05-17T14:53:03;5.60;;;2.30;;
5871;SDS011;2962;51.312;7.378;2023-05-17T14:55:28;3.33;;;2.03;;
5871;SDS011;2962;51.312;7.378;2023-05-17T14:57:54;2.40;;;2.13;;
5871;SDS011;2962;51.312;7.378;2023-05-17T15:00:21;3.37;;;2.10;;
5871;SDS011;2962;51.312;7.378;2023-05-17T15:02:47;3.03;;;2.10;;
5871;SDS011;2962;51.312;7.378;2023-05-17T15:05:12;5.77;;;2.30;;
5871;SDS011;2962;51.312;7.378;2023-05-17T15:07:38;2.40;;;2.07;;
5871;SDS011;2962;51.312;7.378;2023-05-17T15:10:03;6.83;;;2.20;;
5871;SDS011;2962;51.312;7.378;2023-05-17T15:12:29;3.67;;;2.40;;
5871;SDS011;2962;51.312;7.378;2023-05-17T15:14:55;4.70;;;2.10;;
5871;SDS011;2962;51.312;7.378;2023-05-17T15:17:21;9.27;;;2.40;;
5871;SDS011;2962;51.312;7.378;2023-05-17T15:19:46;5.40;;;1.90;;
5871;SDS011;2962;51.312;7.378;2023-05-17T15:22:12;3.80;;;2.10;;
5871;SDS011;2962;51.312;7.378;2023-05-17T15:24:37;5.03;;;2.70;;